sensor_id;sensor_type;location;lat;lon;timestamp;P1;durP1;ratioP1;P2;durP2;ratioP2
5688;SDS011;2869;50.432;8.680;2023-04-23T00:01:55;14.57;;;10.33;;
5688;SDS011;2869;50.432;8.680;2023-04-23T00:04:24;12.57;;;10.10;;
5688;SDS011;2869;50.432;8.680;2023-04-23T00:06:52;13.37;;;10.50;;
5688;SDS011;2869;50.432;8.680;2023-04-23T00:09:20;16.33;;;11.40;;
5688;SDS011;2869;50.432;8.680;2023-04-23T00:11:50;18.90;;;12.83;;
5688;SDS011;2869;50.432;8.680;2023-04-23T00:14:17;20.07;;;12.60;;
5688;SDS011;2869;50.432;8.680;2023-04-23T00:16:44;16.10;;;11.90;;
5688;SDS011;2869;50.432;8.680;2023-04-23T00:19:11;18.27;;;14.20;;
5688;SDS011;2869;50.432;8.680;2023-04-23T00:21:38;16.57;;;13.80;;
5688;SDS011;2869;50.432;8.680;2023-04-23T00:24:05;20.67;;;14.87;;
5688;SDS011;2869;50.432;8.680;2023-04-23T00:26:32;21.23;;;14.83;;
5688;SDS011;2869;50.432;8.680;2023-04-23T00:29:00;20.87;;;14.43;;
5688;SDS011;2869;50.432;8.680;2023-04-23T00:31:26;19.93;;;14.30;;
5688;SDS011;2869;50.432;8.680;2023-04-23T00:33:53;22.00;;;15.07;;
5688;SDS011;2869;50.432;8.680;2023-04-23T00:36:20;22.60;;;15.60;;
5688;SDS011;2869;50.432;8.680;2023-04-23T00:38:46;20.10;;;14.80;;
5688;SDS011;2869;50.432;8.680;2023-04-23T00:41:13;21.73;;;15.63;;
5688;SDS011;2869;50.432;8.680;2023-04-23T00:43:40;23.10;;;14.93;;
5688;SDS011;2869;50.432;8.680;2023-04-23T00:46:09;24.30;;;16.37;;
5688;SDS011;2869;50.432;8.680;2023-04-23T00:48:36;23.20;;;14.80;;
5688;SDS011;2869;50.432;8.680;2023-04-23T00:51:03;26.70;;;14.90;;
5688;SDS011;2869;50.432;8.680;2023-04-23T00:53:31;21.73;;;14.27;;
5688;SDS011;2869;50.432;8.680;2023-04-23T00:55:58;19.60;;;14.77;;
5688;SDS011;2869;50.432;8.680;2023-04-23T00:58:26;24.40;;;15.83;;
5688;SDS011;2869;50.432;8.680;2023-04-23T01:00:53;21.80;;;14.63;;
5688;SDS011;2869;50.432;8.680;2023-04-23T01:03:22;19.07;;;14.10;;
5688;SDS011;2869;50.432;8.680;2023-04-23T01:05:50;20.30;;;14.33;;
5688;SDS011;2869;50.432;8.680;2023-04-23T01:08:17;21.83;;;16.27;;
5688;SDS011;2869;50.432;8.680;2023-04-23T01:10:46;20.70;;;15.53;;
5688;SDS011;2869;50.432;8.680;2023-04-23T01:13:13;20.37;;;15.57;;
5688;SDS011;2869;50.432;8.680;2023-04-23T01:15:40;27.63;;;16.50;;
5688;SDS011;2869;50.432;8.680;2023-04-23T01:18:07;29.13;;;16.13;;
5688;SDS011;2869;50.432;8.680;2023-04-23T01:20:36;19.47;;;15.63;;
5688;SDS011;2869;50.432;8.680;2023-04-23T01:23:04;21.73;;;15.13;;
5688;SDS011;2869;50.432;8.680;2023-04-23T01:25:32;21.00;;;15.13;;
5688;SDS011;2869;50.432;8.680;2023-04-23T01:27:59;21.67;;;16.00;;
5688;SDS011;2869;50.432;8.680;2023-04-23T01:30:26;22.40;;;15.50;;
5688;SDS011;2869;50.432;8.680;2023-04-23T01:32:53;12.07;;;8.97;;
5688;SDS011;2869;50.432;8.680;2023-04-23T01:35:21;11.43;;;10.23;;
5688;SDS011;2869;50.432;8.680;2023-04-23T01:37:48;11.70;;;10.20;;
5688;SDS011;2869;50.432;8.680;2023-04-23T01:40:17;11.37;;;9.50;;
5688;SDS011;2869;50.432;8.680;2023-04-23T01:42:44;11.40;;;9.50;;
5688;SDS011;2869;50.432;8.680;2023-04-23T01:45:11;8.77;;;7.30;;
5688;SDS011;2869;50.432;8.680;2023-04-23T01:47:39;10.23;;;8.40;;
5688;SDS011;2869;50.432;8.680;2023-04-23T01:50:06;8.07;;;7.33;;
5688;SDS011;2869;50.432;8.680;2023-04-23T01:52:33;8.37;;;7.20;;
5688;SDS011;2869;50.432;8.680;2023-04-23T01:55:00;7.80;;;6.17;;
5688;SDS011;2869;50.432;8.680;2023-04-23T01:57:28;6.00;;;5.50;;
5688;SDS011;2869;50.432;8.680;2023-04-23T01:59:56;5.60;;;5.07;;
5688;SDS011;2869;50.432;8.680;2023-04-23T02:02:29;5.60;;;5.00;;
5688;SDS011;2869;50.432;8.680;2023-04-23T02:04:55;5.50;;;5.00;;
5688;SDS011;2869;50.432;8.680;2023-04-23T02:07:23;6.57;;;4.70;;
5688;SDS011;2869;50.432;8.680;2023-04-23T02:09:50;6.70;;;5.37;;
5688;SDS011;2869;50.432;8.680;2023-04-23T02:12:17;7.17;;;5.97;;
5688;SDS011;2869;50.432;8.680;2023-04-23T02:14:44;6.97;;;5.80;;
5688;SDS011;2869;50.432;8.680;2023-04-23T02:17:11;6.63;;;5.43;;
5688;SDS011;2869;50.432;8.680;2023-04-23T02:19:38;6.13;;;5.60;;
5688;SDS011;2869;50.432;8.680;2023-04-23T02:22:04;6.27;;;5.67;;
5688;SDS011;2869;50.432;8.680;2023-04-23T02:24:32;6.53;;;5.27;;
5688;SDS011;2869;50.432;8.680;2023-04-23T02:26:58;7.43;;;5.80;;
5688;SDS011;2869;50.432;8.680;2023-04-23T02:29:26;6.17;;;5.63;;
5688;SDS011;2869;50.432;8.680;2023-04-23T02:31:54;10.60;;;6.77;;
5688;SDS011;2869;50.432;8.680;2023-04-23T02:34:20;8.60;;;6.20;;
5688;SDS011;2869;50.432;8.680;2023-04-23T02:36:47;9.47;;;6.57;;
5688;SDS011;2869;50.432;8.680;2023-04-23T02:39:13;8.43;;;7.27;;
5688;SDS011;2869;50.432;8.680;2023-04-23T02:41:40;7.67;;;6.10;;
5688;SDS011;2869;50.432;8.680;2023-04-23T02:44:07;6.90;;;6.20;;
5688;SDS011;2869;50.432;8.680;2023-04-23T02:46:33;6.60;;;6.00;;
5688;SDS011;2869;50.432;8.680;2023-04-23T02:49:03;8.93;;;6.57;;
5688;SDS011;2869;50.432;8.680;2023-04-23T02:51:30;6.70;;;6.10;;
5688;SDS011;2869;50.432;8.680;2023-04-23T02:53:57;7.73;;;7.10;;
5688;SDS011;2869;50.432;8.680;2023-04-23T02:56:24;7.90;;;6.20;;
5688;SDS011;2869;50.432;8.680;2023-04-23T02:58:51;6.77;;;6.17;;
5688;SDS011;2869;50.432;8.680;2023-04-23T03:01:18;7.37;;;6.37;;
5688;SDS011;2869;50.432;8.680;2023-04-23T03:03:44;10.67;;;6.73;;
5688;SDS011;2869;50.432;8.680;2023-04-23T03:06:12;7.10;;;6.40;;
5688;SDS011;2869;50.432;8.680;2023-04-23T03:08:39;7.40;;;6.70;;
5688;SDS011;2869;50.432;8.680;2023-04-23T03:11:05;7.33;;;6.57;;
5688;SDS011;2869;50.432;8.680;2023-04-23T03:13:32;7.73;;;6.97;;
5688;SDS011;2869;50.432;8.680;2023-04-23T03:15:59;6.57;;;5.90;;
5688;SDS011;2869;50.432;8.680;2023-04-23T03:18:25;9.13;;;5.93;;
5688;SDS011;2869;50.432;8.680;2023-04-23T03:20:52;8.20;;;6.87;;
5688;SDS011;2869;50.432;8.680;2023-04-23T03:23:20;6.90;;;6.30;;
5688;SDS011;2869;50.432;8.680;2023-04-23T03:25:46;8.20;;;6.40;;
5688;SDS011;2869;50.432;8.680;2023-04-23T03:28:13;8.63;;;6.40;;
5688;SDS011;2869;50.432;8.680;2023-04-23T03:30:40;7.50;;;6.20;;
5688;SDS011;2869;50.432;8.680;2023-04-23T03:33:06;6.50;;;5.90;;
5688;SDS011;2869;50.432;8.680;2023-04-23T03:35:34;7.40;;;6.60;;
5688;SDS011;2869;50.432;8.680;2023-04-23T03:38:01;7.47;;;6.77;;
5688;SDS011;2869;50.432;8.680;2023-04-23T03:40:28;8.07;;;7.00;;
5688;SDS011;2869;50.432;8.680;2023-04-23T03:42:55;8.50;;;7.10;;
5688;SDS011;2869;50.432;8.680;2023-04-23T03:45:22;6.87;;;5.87;;
5688;SDS011;2869;50.432;8.680;2023-04-23T03:47:49;7.50;;;6.80;;
5688;SDS011;2869;50.432;8.680;2023-04-23T03:50:16;8.20;;;6.77;;
5688;SDS011;2869;50.432;8.680;2023-04-23T03:52:43;8.80;;;6.40;;
5688;SDS011;2869;50.432;8.680;2023-04-23T03:55:09;7.50;;;6.50;;
5688;SDS011;2869;50.432;8.680;2023-04-23T03:57:37;7.83;;;6.23;;
5688;SDS011;2869;50.432;8.680;2023-04-23T04:00:04;7.07;;;6.47;;
5688;SDS011;2869;50.432;8.680;2023-04-23T04:02:34;10.57;;;6.13;;
5688;SDS011;2869;50.432;8.680;2023-04-23T04:05:00;7.40;;;6.60;;
5688;SDS011;2869;50.432;8.680;2023-04-23T04:07:27;10.60;;;7.30;;
5688;SDS011;2869;50.432;8.680;2023-04-23T04:09:54;7.80;;;6.93;;
5688;SDS011;2869;50.432;8.680;2023-04-23T04:12:20;10.77;;;7.20;;
5688;SDS011;2869;50.432;8.680;2023-04-23T04:14:48;8.17;;;7.40;;
5688;SDS011;2869;50.432;8.680;2023-04-23T04:17:15;7.50;;;6.80;;
5688;SDS011;2869;50.432;8.680;2023-04-23T04:19:41;8.87;;;7.40;;
5688;SDS011;2869;50.432;8.680;2023-04-23T04:22:08;7.33;;;6.00;;
5688;SDS011;2869;50.432;8.680;2023-04-23T04:24:35;12.83;;;7.53;;
5688;SDS011;2869;50.432;8.680;2023-04-23T04:27:02;8.13;;;7.33;;
5688;SDS011;2869;50.432;8.680;2023-04-23T04:29:29;8.70;;;7.33;;
5688;SDS011;2869;50.432;8.680;2023-04-23T04:31:58;8.97;;;7.40;;
5688;SDS011;2869;50.432;8.680;2023-04-23T04:34:26;7.93;;;7.13;;
5688;SDS011;2869;50.432;8.680;2023-04-23T04:36:53;10.07;;;7.90;;
5688;SDS011;2869;50.432;8.680;2023-04-23T04:39:19;9.93;;;8.03;;
5688;SDS011;2869;50.432;8.680;2023-04-23T04:41:46;10.10;;;8.83;;
5688;SDS011;2869;50.432;8.680;2023-04-23T04:44:13;14.77;;;9.73;;
5688;SDS011;2869;50.432;8.680;2023-04-23T04:46:40;9.63;;;8.63;;
5688;SDS011;2869;50.432;8.680;2023-04-23T04:49:08;12.20;;;10.23;;
5688;SDS011;2869;50.432;8.680;2023-04-23T04:51:35;14.27;;;10.00;;
5688;SDS011;2869;50.432;8.680;2023-04-23T04:54:03;11.47;;;10.00;;
5688;SDS011;2869;50.432;8.680;2023-04-23T04:56:30;17.37;;;11.97;;
5688;SDS011;2869;50.432;8.680;2023-04-23T04:58:57;15.03;;;12.23;;
5688;SDS011;2869;50.432;8.680;2023-04-23T05:01:23;13.60;;;11.87;;
5688;SDS011;2869;50.432;8.680;2023-04-23T05:03:51;18.33;;;13.00;;
5688;SDS011;2869;50.432;8.680;2023-04-23T05:06:19;16.17;;;13.03;;
5688;SDS011;2869;50.432;8.680;2023-04-23T05:08:46;16.63;;;12.07;;
5688;SDS011;2869;50.432;8.680;2023-04-23T05:11:13;17.83;;;12.37;;
5688;SDS011;2869;50.432;8.680;2023-04-23T05:13:40;15.13;;;11.87;;
5688;SDS011;2869;50.432;8.680;2023-04-23T05:16:06;16.13;;;12.80;;
5688;SDS011;2869;50.432;8.680;2023-04-23T05:18:33;14.53;;;12.00;;
5688;SDS011;2869;50.432;8.680;2023-04-23T05:21:00;13.03;;;11.10;;
5688;SDS011;2869;50.432;8.680;2023-04-23T05:23:28;14.63;;;12.00;;
5688;SDS011;2869;50.432;8.680;2023-04-23T05:25:54;14.07;;;11.00;;
5688;SDS011;2869;50.432;8.680;2023-04-23T05:28:22;15.27;;;11.67;;
5688;SDS011;2869;50.432;8.680;2023-04-23T05:30:49;12.50;;;10.93;;
5688;SDS011;2869;50.432;8.680;2023-04-23T05:33:16;12.70;;;10.30;;
5688;SDS011;2869;50.432;8.680;2023-04-23T05:35:43;12.27;;;10.60;;
5688;SDS011;2869;50.432;8.680;2023-04-23T05:38:10;13.73;;;10.57;;
5688;SDS011;2869;50.432;8.680;2023-04-23T05:40:38;12.67;;;11.37;;
5688;SDS011;2869;50.432;8.680;2023-04-23T05:43:04;21.07;;;11.47;;
5688;SDS011;2869;50.432;8.680;2023-04-23T05:45:31;13.10;;;11.50;;
5688;SDS011;2869;50.432;8.680;2023-04-23T05:47:58;13.67;;;11.63;;
5688;SDS011;2869;50.432;8.680;2023-04-23T05:50:24;14.30;;;11.57;;
5688;SDS011;2869;50.432;8.680;2023-04-23T05:52:51;15.27;;;12.00;;
5688;SDS011;2869;50.432;8.680;2023-04-23T05:55:18;20.80;;;11.33;;
5688;SDS011;2869;50.432;8.680;2023-04-23T05:57:46;14.17;;;10.10;;
5688;SDS011;2869;50.432;8.680;2023-04-23T06:00:13;14.70;;;11.60;;
5688;SDS011;2869;50.432;8.680;2023-04-23T06:02:41;18.73;;;13.07;;
5688;SDS011;2869;50.432;8.680;2023-04-23T06:05:08;19.20;;;13.73;;
5688;SDS011;2869;50.432;8.680;2023-04-23T06:07:35;17.47;;;12.00;;
5688;SDS011;2869;50.432;8.680;2023-04-23T06:10:02;15.40;;;12.70;;
5688;SDS011;2869;50.432;8.680;2023-04-23T06:12:29;18.17;;;13.90;;
5688;SDS011;2869;50.432;8.680;2023-04-23T06:14:58;18.40;;;13.53;;
5688;SDS011;2869;50.432;8.680;2023-04-23T06:17:25;18.20;;;12.50;;
5688;SDS011;2869;50.432;8.680;2023-04-23T06:19:51;18.10;;;13.50;;
5688;SDS011;2869;50.432;8.680;2023-04-23T06:22:18;19.57;;;14.60;;
5688;SDS011;2869;50.432;8.680;2023-04-23T06:24:44;20.80;;;15.83;;
5688;SDS011;2869;50.432;8.680;2023-04-23T06:27:11;25.03;;;17.07;;
5688;SDS011;2869;50.432;8.680;2023-04-23T06:29:38;25.00;;;17.30;;
5688;SDS011;2869;50.432;8.680;2023-04-23T06:32:06;28.53;;;18.47;;
5688;SDS011;2869;50.432;8.680;2023-04-23T06:34:33;24.80;;;18.40;;
5688;SDS011;2869;50.432;8.680;2023-04-23T06:36:59;23.00;;;17.97;;
5688;SDS011;2869;50.432;8.680;2023-04-23T06:39:26;30.60;;;20.20;;
5688;SDS011;2869;50.432;8.680;2023-04-23T06:41:53;28.33;;;21.30;;
5688;SDS011;2869;50.432;8.680;2023-04-23T06:44:20;22.87;;;17.70;;
5688;SDS011;2869;50.432;8.680;2023-04-23T06:46:47;21.10;;;17.00;;
5688;SDS011;2869;50.432;8.680;2023-04-23T06:49:15;17.40;;;13.90;;
5688;SDS011;2869;50.432;8.680;2023-04-23T06:51:41;13.70;;;12.10;;
5688;SDS011;2869;50.432;8.680;2023-04-23T06:54:08;11.97;;;10.70;;
5688;SDS011;2869;50.432;8.680;2023-04-23T06:56:34;14.73;;;9.97;;
5688;SDS011;2869;50.432;8.680;2023-04-23T06:59:01;11.13;;;9.07;;
5688;SDS011;2869;50.432;8.680;2023-04-23T07:01:28;10.50;;;8.13;;
5688;SDS011;2869;50.432;8.680;2023-04-23T07:03:55;9.20;;;7.90;;
5688;SDS011;2869;50.432;8.680;2023-04-23T07:06:22;8.53;;;7.23;;
5688;SDS011;2869;50.432;8.680;2023-04-23T07:08:49;7.97;;;6.67;;
5688;SDS011;2869;50.432;8.680;2023-04-23T07:11:16;7.87;;;6.50;;
5688;SDS011;2869;50.432;8.680;2023-04-23T07:13:43;6.80;;;6.10;;
5688;SDS011;2869;50.432;8.680;2023-04-23T07:16:09;7.40;;;6.70;;
5688;SDS011;2869;50.432;8.680;2023-04-23T07:18:36;6.73;;;6.13;;
5688;SDS011;2869;50.432;8.680;2023-04-23T07:21:03;7.50;;;6.70;;
5688;SDS011;2869;50.432;8.680;2023-04-23T07:23:31;8.83;;;6.33;;
5688;SDS011;2869;50.432;8.680;2023-04-23T07:25:58;6.23;;;5.63;;
5688;SDS011;2869;50.432;8.680;2023-04-23T07:28:24;4.80;;;4.50;;
5688;SDS011;2869;50.432;8.680;2023-04-23T07:30:51;5.10;;;4.60;;
5688;SDS011;2869;50.432;8.680;2023-04-23T07:33:17;5.20;;;4.70;;
5688;SDS011;2869;50.432;8.680;2023-04-23T07:35:44;4.90;;;4.50;;
5688;SDS011;2869;50.432;8.680;2023-04-23T07:38:11;9.63;;;5.40;;
5688;SDS011;2869;50.432;8.680;2023-04-23T07:40:39;5.37;;;4.63;;
5688;SDS011;2869;50.432;8.680;2023-04-23T07:43:05;5.03;;;4.50;;
5688;SDS011;2869;50.432;8.680;2023-04-23T07:45:32;5.20;;;4.70;;
5688;SDS011;2869;50.432;8.680;2023-04-23T07:47:58;4.43;;;4.03;;
5688;SDS011;2869;50.432;8.680;2023-04-23T07:50:26;4.40;;;4.00;;
5688;SDS011;2869;50.432;8.680;2023-04-23T07:52:53;5.23;;;4.57;;
5688;SDS011;2869;50.432;8.680;2023-04-23T07:55:19;6.40;;;4.20;;
5688;SDS011;2869;50.432;8.680;2023-04-23T07:57:48;4.20;;;3.90;;
5688;SDS011;2869;50.432;8.680;2023-04-23T08:00:14;4.70;;;4.33;;
5688;SDS011;2869;50.432;8.680;2023-04-23T08:02:41;4.40;;;4.07;;
5688;SDS011;2869;50.432;8.680;2023-04-23T08:05:08;6.37;;;4.20;;
5688;SDS011;2869;50.432;8.680;2023-04-23T08:07:35;4.30;;;4.00;;
5688;SDS011;2869;50.432;8.680;2023-04-23T08:10:02;4.67;;;4.27;;
5688;SDS011;2869;50.432;8.680;2023-04-23T08:12:30;7.07;;;5.00;;
5688;SDS011;2869;50.432;8.680;2023-04-23T08:15:01;5.73;;;5.17;;
5688;SDS011;2869;50.432;8.680;2023-04-23T08:17:27;7.13;;;5.13;;
5688;SDS011;2869;50.432;8.680;2023-04-23T08:19:54;5.67;;;5.17;;
5688;SDS011;2869;50.432;8.680;2023-04-23T08:22:21;5.50;;;4.90;;
5688;SDS011;2869;50.432;8.680;2023-04-23T08:24:48;6.40;;;5.80;;
5688;SDS011;2869;50.432;8.680;2023-04-23T08:27:14;6.07;;;5.30;;
5688;SDS011;2869;50.432;8.680;2023-04-23T08:29:41;7.90;;;6.40;;
5688;SDS011;2869;50.432;8.680;2023-04-23T08:32:09;8.40;;;5.90;;
5688;SDS011;2869;50.432;8.680;2023-04-23T08:34:36;6.53;;;5.93;;
5688;SDS011;2869;50.432;8.680;2023-04-23T08:37:02;8.57;;;6.80;;
5688;SDS011;2869;50.432;8.680;2023-04-23T08:39:29;7.37;;;6.63;;
5688;SDS011;2869;50.432;8.680;2023-04-23T08:41:57;6.80;;;5.97;;
5688;SDS011;2869;50.432;8.680;2023-04-23T08:44:30;6.60;;;5.70;;
5688;SDS011;2869;50.432;8.680;2023-04-23T08:46:57;7.63;;;6.63;;
5688;SDS011;2869;50.432;8.680;2023-04-23T08:49:31;7.07;;;6.40;;
5688;SDS011;2869;50.432;8.680;2023-04-23T08:52:00;6.43;;;5.70;;
5688;SDS011;2869;50.432;8.680;2023-04-23T08:54:40;7.40;;;6.00;;
5688;SDS011;2869;50.432;8.680;2023-04-23T08:57:10;8.33;;;6.87;;
5688;SDS011;2869;50.432;8.680;2023-04-23T08:59:38;7.00;;;5.77;;
5688;SDS011;2869;50.432;8.680;2023-04-23T09:02:06;8.47;;;6.17;;
5688;SDS011;2869;50.432;8.680;2023-04-23T09:04:35;7.30;;;5.85;;
5688;SDS011;2869;50.432;8.680;2023-04-23T09:07:03;8.27;;;5.80;;
5688;SDS011;2869;50.432;8.680;2023-04-23T09:09:32;6.73;;;5.87;;
5688;SDS011;2869;50.432;8.680;2023-04-23T09:11:59;7.03;;;5.73;;
5688;SDS011;2869;50.432;8.680;2023-04-23T09:14:26;6.20;;;5.00;;
5688;SDS011;2869;50.432;8.680;2023-04-23T09:16:53;7.73;;;5.20;;
5688;SDS011;2869;50.432;8.680;2023-04-23T09:19:20;6.07;;;5.20;;
5688;SDS011;2869;50.432;8.680;2023-04-23T09:21:50;5.43;;;4.90;;
5688;SDS011;2869;50.432;8.680;2023-04-23T09:24:17;6.03;;;4.90;;
5688;SDS011;2869;50.432;8.680;2023-04-23T09:26:47;6.40;;;5.80;;
5688;SDS011;2869;50.432;8.680;2023-04-23T09:29:15;6.20;;;5.60;;
5688;SDS011;2869;50.432;8.680;2023-04-23T09:31:43;8.90;;;5.50;;
5688;SDS011;2869;50.432;8.680;2023-04-23T09:34:11;7.30;;;5.90;;
5688;SDS011;2869;50.432;8.680;2023-04-23T09:36:42;6.90;;;6.30;;
5688;SDS011;2869;50.432;8.680;2023-04-23T09:39:13;7.80;;;6.30;;
5688;SDS011;2869;50.432;8.680;2023-04-23T09:41:41;7.10;;;5.93;;
5688;SDS011;2869;50.432;8.680;2023-04-23T09:44:07;6.57;;;5.20;;
5688;SDS011;2869;50.432;8.680;2023-04-23T09:46:36;6.50;;;5.00;;
5688;SDS011;2869;50.432;8.680;2023-04-23T09:49:04;6.40;;;5.00;;
5688;SDS011;2869;50.432;8.680;2023-04-23T09:51:34;5.47;;;5.03;;
5688;SDS011;2869;50.432;8.680;2023-04-23T09:54:01;5.33;;;4.67;;
5688;SDS011;2869;50.432;8.680;2023-04-23T09:56:30;10.10;;;4.90;;
5688;SDS011;2869;50.432;8.680;2023-04-23T09:58:56;5.00;;;4.60;;
5688;SDS011;2869;50.432;8.680;2023-04-23T10:01:27;4.60;;;4.20;;
5688;SDS011;2869;50.432;8.680;2023-04-23T10:03:54;5.03;;;4.53;;
5688;SDS011;2869;50.432;8.680;2023-04-23T10:06:25;5.73;;;5.03;;
5688;SDS011;2869;50.432;8.680;2023-04-23T10:08:54;7.17;;;4.70;;
5688;SDS011;2869;50.432;8.680;2023-04-23T10:11:21;5.97;;;4.13;;
5688;SDS011;2869;50.432;8.680;2023-04-23T10:13:51;4.43;;;4.07;;
5688;SDS011;2869;50.432;8.680;2023-04-23T10:16:20;5.93;;;4.00;;
5688;SDS011;2869;50.432;8.680;2023-04-23T10:18:47;4.40;;;4.00;;
5688;SDS011;2869;50.432;8.680;2023-04-23T10:21:15;7.73;;;4.40;;
5688;SDS011;2869;50.432;8.680;2023-04-23T10:23:43;6.60;;;3.90;;
5688;SDS011;2869;50.432;8.680;2023-04-23T10:26:12;4.23;;;3.87;;
5688;SDS011;2869;50.432;8.680;2023-04-23T10:28:40;4.20;;;3.90;;
5688;SDS011;2869;50.432;8.680;2023-04-23T10:31:13;6.67;;;4.70;;
5688;SDS011;2869;50.432;8.680;2023-04-23T10:33:40;4.67;;;4.27;;
5688;SDS011;2869;50.432;8.680;2023-04-23T10:36:08;4.40;;;4.00;;
5688;SDS011;2869;50.432;8.680;2023-04-23T10:38:35;3.73;;;3.37;;
5688;SDS011;2869;50.432;8.680;2023-04-23T10:41:03;4.23;;;3.83;;
5688;SDS011;2869;50.432;8.680;2023-04-23T10:43:31;4.20;;;3.80;;
5688;SDS011;2869;50.432;8.680;2023-04-23T10:45:59;3.30;;;3.00;;
5688;SDS011;2869;50.432;8.680;2023-04-23T10:48:27;4.27;;;3.87;;
5688;SDS011;2869;50.432;8.680;2023-04-23T10:50:57;4.27;;;3.87;;
5688;SDS011;2869;50.432;8.680;2023-04-23T10:53:25;5.23;;;4.20;;
5688;SDS011;2869;50.432;8.680;2023-04-23T10:56:03;4.23;;;3.83;;
5688;SDS011;2869;50.432;8.680;2023-04-23T10:58:46;11.33;;;3.83;;
5688;SDS011;2869;50.432;8.680;2023-04-23T11:01:13;4.40;;;3.80;;
5688;SDS011;2869;50.432;8.680;2023-04-23T11:03:43;4.40;;;4.00;;
5688;SDS011;2869;50.432;8.680;2023-04-23T11:06:12;12.03;;;3.90;;
5688;SDS011;2869;50.432;8.680;2023-04-23T11:08:49;4.87;;;3.80;;
5688;SDS011;2869;50.432;8.680;2023-04-23T11:11:17;3.73;;;3.00;;
5688;SDS011;2869;50.432;8.680;2023-04-23T11:13:50;3.70;;;3.40;;
5688;SDS011;2869;50.432;8.680;2023-04-23T11:16:19;9.37;;;3.87;;
5688;SDS011;2869;50.432;8.680;2023-04-23T11:18:58;3.63;;;3.00;;
5688;SDS011;2869;50.432;8.680;2023-04-23T11:24:26;4.03;;;3.13;;
5688;SDS011;2869;50.432;8.680;2023-04-23T11:26:53;3.53;;;2.90;;
5688;SDS011;2869;50.432;8.680;2023-04-23T11:29:21;3.80;;;2.90;;
5688;SDS011;2869;50.432;8.680;2023-04-23T11:31:48;8.90;;;3.20;;
5688;SDS011;2869;50.432;8.680;2023-04-23T11:34:16;3.40;;;3.10;;
5688;SDS011;2869;50.432;8.680;2023-04-23T11:36:43;4.13;;;3.70;;
5688;SDS011;2869;50.432;8.680;2023-04-23T11:39:10;5.90;;;3.30;;
5688;SDS011;2869;50.432;8.680;2023-04-23T11:41:37;7.07;;;3.40;;
5688;SDS011;2869;50.432;8.680;2023-04-23T11:44:04;4.93;;;3.17;;
5688;SDS011;2869;50.432;8.680;2023-04-23T11:46:32;3.80;;;3.40;;
5688;SDS011;2869;50.432;8.680;2023-04-23T11:48:59;3.80;;;2.90;;
5688;SDS011;2869;50.432;8.680;2023-04-23T11:51:27;4.00;;;2.93;;
5688;SDS011;2869;50.432;8.680;2023-04-23T11:54:00;5.87;;;3.30;;
5688;SDS011;2869;50.432;8.680;2023-04-23T11:56:28;3.17;;;2.63;;
5688;SDS011;2869;50.432;8.680;2023-04-23T11:58:58;8.47;;;3.10;;
5688;SDS011;2869;50.432;8.680;2023-04-23T12:01:30;3.20;;;2.90;;
5688;SDS011;2869;50.432;8.680;2023-04-23T12:04:08;4.77;;;3.47;;
5688;SDS011;2869;50.432;8.680;2023-04-23T12:06:37;6.00;;;4.60;;
5688;SDS011;2869;50.432;8.680;2023-04-23T12:09:06;3.70;;;3.13;;
5688;SDS011;2869;50.432;8.680;2023-04-23T12:11:34;5.83;;;3.80;;
5688;SDS011;2869;50.432;8.680;2023-04-23T12:14:01;8.00;;;6.80;;
5688;SDS011;2869;50.432;8.680;2023-04-23T12:16:34;7.00;;;5.20;;
5688;SDS011;2869;50.432;8.680;2023-04-23T12:19:02;10.70;;;5.40;;
5688;SDS011;2869;50.432;8.680;2023-04-23T12:21:28;4.50;;;4.10;;
5688;SDS011;2869;50.432;8.680;2023-04-23T12:23:56;4.00;;;3.00;;
5688;SDS011;2869;50.432;8.680;2023-04-23T12:26:24;6.20;;;3.30;;
5688;SDS011;2869;50.432;8.680;2023-04-23T12:28:51;3.27;;;3.07;;
5688;SDS011;2869;50.432;8.680;2023-04-23T12:31:20;3.50;;;3.17;;
5688;SDS011;2869;50.432;8.680;2023-04-23T12:33:52;6.73;;;4.10;;
5688;SDS011;2869;50.432;8.680;2023-04-23T12:36:24;3.83;;;2.60;;
5688;SDS011;2869;50.432;8.680;2023-04-23T12:38:52;4.00;;;3.07;;
5688;SDS011;2869;50.432;8.680;2023-04-23T12:41:20;3.00;;;2.80;;
5688;SDS011;2869;50.432;8.680;2023-04-23T12:43:47;3.10;;;2.90;;
5688;SDS011;2869;50.432;8.680;2023-04-23T12:46:15;3.70;;;3.40;;
5688;SDS011;2869;50.432;8.680;2023-04-23T12:48:41;3.73;;;3.10;;
5688;SDS011;2869;50.432;8.680;2023-04-23T12:51:08;2.47;;;2.27;;
5688;SDS011;2869;50.432;8.680;2023-04-23T12:53:35;2.97;;;2.70;;
5688;SDS011;2869;50.432;8.680;2023-04-23T12:56:01;6.33;;;2.60;;
5688;SDS011;2869;50.432;8.680;2023-04-23T12:58:30;2.30;;;2.13;;
5688;SDS011;2869;50.432;8.680;2023-04-23T13:00:56;2.00;;;1.80;;
5688;SDS011;2869;50.432;8.680;2023-04-23T13:03:23;3.70;;;2.07;;
5688;SDS011;2869;50.432;8.680;2023-04-23T13:05:50;2.20;;;2.10;;
5688;SDS011;2869;50.432;8.680;2023-04-23T13:08:16;2.77;;;2.57;;
5688;SDS011;2869;50.432;8.680;2023-04-23T13:10:43;5.40;;;2.53;;
5688;SDS011;2869;50.432;8.680;2023-04-23T13:13:09;2.73;;;2.30;;
5688;SDS011;2869;50.432;8.680;2023-04-23T13:15:37;2.90;;;2.60;;
5688;SDS011;2869;50.432;8.680;2023-04-23T13:18:04;2.83;;;2.63;;
5688;SDS011;2869;50.432;8.680;2023-04-23T13:20:31;5.50;;;2.50;;
5688;SDS011;2869;50.432;8.680;2023-04-23T13:22:58;3.20;;;2.80;;
5688;SDS011;2869;50.432;8.680;2023-04-23T13:25:26;2.87;;;2.60;;
5688;SDS011;2869;50.432;8.680;2023-04-23T13:27:53;3.07;;;2.83;;
5688;SDS011;2869;50.432;8.680;2023-04-23T13:30:20;3.13;;;2.90;;
5688;SDS011;2869;50.432;8.680;2023-04-23T13:32:48;3.27;;;2.97;;
5688;SDS011;2869;50.432;8.680;2023-04-23T13:35:14;3.33;;;3.13;;
5688;SDS011;2869;50.432;8.680;2023-04-23T13:37:42;3.20;;;3.00;;
5688;SDS011;2869;50.432;8.680;2023-04-23T13:40:09;2.87;;;2.67;;
5688;SDS011;2869;50.432;8.680;2023-04-23T13:42:36;4.03;;;3.17;;
5688;SDS011;2869;50.432;8.680;2023-04-23T13:45:03;4.80;;;3.00;;
5688;SDS011;2869;50.432;8.680;2023-04-23T13:47:30;7.23;;;3.57;;
5688;SDS011;2869;50.432;8.680;2023-04-23T13:50:00;4.40;;;2.87;;
5688;SDS011;2869;50.432;8.680;2023-04-23T13:52:29;3.27;;;2.97;;
5688;SDS011;2869;50.432;8.680;2023-04-23T13:54:56;3.50;;;3.20;;
5688;SDS011;2869;50.432;8.680;2023-04-23T13:57:24;3.80;;;2.83;;
5688;SDS011;2869;50.432;8.680;2023-04-23T13:59:51;3.00;;;2.80;;
5688;SDS011;2869;50.432;8.680;2023-04-23T14:02:19;5.17;;;3.53;;
5688;SDS011;2869;50.432;8.680;2023-04-23T14:04:45;4.23;;;3.40;;
5688;SDS011;2869;50.432;8.680;2023-04-23T14:07:14;3.57;;;3.27;;
5688;SDS011;2869;50.432;8.680;2023-04-23T14:09:40;3.10;;;2.50;;
5688;SDS011;2869;50.432;8.680;2023-04-23T14:12:07;6.30;;;3.13;;
5688;SDS011;2869;50.432;8.680;2023-04-23T14:14:34;3.57;;;3.23;;
5688;SDS011;2869;50.432;8.680;2023-04-23T14:17:01;3.60;;;3.10;;
5688;SDS011;2869;50.432;8.680;2023-04-23T14:19:27;3.73;;;3.43;;
5688;SDS011;2869;50.432;8.680;2023-04-23T14:21:54;6.43;;;3.80;;
5688;SDS011;2869;50.432;8.680;2023-04-23T14:24:22;4.10;;;3.67;;
5688;SDS011;2869;50.432;8.680;2023-04-23T14:26:53;5.43;;;3.77;;
5688;SDS011;2869;50.432;8.680;2023-04-23T14:29:27;3.50;;;3.20;;
5688;SDS011;2869;50.432;8.680;2023-04-23T14:31:56;4.50;;;3.70;;
5688;SDS011;2869;50.432;8.680;2023-04-23T14:34:23;4.47;;;3.50;;
5688;SDS011;2869;50.432;8.680;2023-04-23T14:36:50;4.27;;;3.50;;
5688;SDS011;2869;50.432;8.680;2023-04-23T14:39:17;4.47;;;3.30;;
5688;SDS011;2869;50.432;8.680;2023-04-23T14:41:45;3.10;;;2.90;;
5688;SDS011;2869;50.432;8.680;2023-04-23T14:44:11;2.80;;;2.50;;
5688;SDS011;2869;50.432;8.680;2023-04-23T14:46:38;7.10;;;3.37;;
5688;SDS011;2869;50.432;8.680;2023-04-23T14:49:04;3.47;;;3.17;;
5688;SDS011;2869;50.432;8.680;2023-04-23T14:51:31;3.40;;;2.97;;
5688;SDS011;2869;50.432;8.680;2023-04-23T14:53:58;2.80;;;2.60;;
5688;SDS011;2869;50.432;8.680;2023-04-23T14:56:24;3.27;;;2.97;;
5688;SDS011;2869;50.432;8.680;2023-04-23T14:58:52;4.67;;;3.10;;
5688;SDS011;2869;50.432;8.680;2023-04-23T15:01:19;3.07;;;2.83;;
5688;SDS011;2869;50.432;8.680;2023-04-23T15:03:46;4.60;;;2.70;;
5688;SDS011;2869;50.432;8.680;2023-04-23T15:06:12;2.63;;;2.43;;
5688;SDS011;2869;50.432;8.680;2023-04-23T15:08:39;3.30;;;2.40;;
5688;SDS011;2869;50.432;8.680;2023-04-23T15:11:06;2.70;;;2.50;;
5688;SDS011;2869;50.432;8.680;2023-04-23T15:13:38;5.30;;;2.73;;